createdAt,value
2023-04-20T00:00:53.015Z,51.41
2023-04-20T00:01:54.669Z,51.66
2023-04-20T00:02:56.470Z,51.44
2023-04-20T00:03:58.354Z,51.32
2023-04-20T00:05:00.511Z,51.33
2023-04-20T00:06:02.230Z,51.16
2023-04-20T00:07:04.519Z,51.80
2023-04-20T00:08:06.247Z,51.32
2023-04-20T00:09:08.398Z,51.44
2023-04-20T00:10:10.536Z,51.28
2023-04-20T00:11:12.345Z,51.20
2023-04-20T00:12:13.904Z,51.20
2023-04-20T00:13:15.514Z,51.09
2023-04-20T00:14:17.209Z,51.07
2023-04-20T00:15:18.883Z,51.17
2023-04-20T00:16:20.444Z,51.17
2023-04-20T00:17:22.202Z,51.39
2023-04-20T00:18:23.725Z,51.21
2023-04-20T00:19:27.010Z,50.79
2023-04-20T00:20:31.602Z,50.83
2023-04-20T00:21:33.990Z,51.00
2023-04-20T00:22:36.025Z,50.91
2023-04-20T00:23:37.632Z,51.21
2023-04-20T00:24:39.285Z,51.01
2023-04-20T00:25:40.814Z,51.42
2023-04-20T00:26:42.570Z,51.07
2023-04-20T00:27:46.423Z,51.18
2023-04-20T00:28:51.660Z,51.42
2023-04-20T00:29:53.317Z,51.12
2023-04-20T00:30:54.955Z,51.36
2023-04-20T00:31:59.816Z,51.05
2023-04-20T00:33:02.183Z,51.24
2023-04-20T00:34:08.377Z,51.31
2023-04-20T00:35:12.531Z,51.58
2023-04-20T00:36:14.439Z,51.53
2023-04-20T00:37:16.126Z,50.99
2023-04-20T00:38:17.631Z,51.17
2023-04-20T00:39:19.698Z,51.21
2023-04-20T00:40:21.472Z,51.44
2023-04-20T00:41:23.456Z,51.28
2023-04-20T00:42:27.555Z,50.64
2023-04-20T00:43:29.157Z,50.91
2023-04-20T00:44:30.778Z,51.21
2023-04-20T00:45:32.412Z,51.22
2023-04-20T00:46:34.244Z,51.17
2023-04-20T00:47:36.107Z,51.64
2023-04-20T00:48:40.245Z,51.73
2023-04-20T00:49:41.979Z,51.43
2023-04-20T00:50:43.624Z,51.42
2023-04-20T00:51:45.517Z,51.32
2023-04-20T00:52:47.705Z,51.18
2023-04-20T00:53:49.754Z,51.36
2023-04-20T00:54:53.737Z,51.52
2023-04-20T00:55:57.856Z,51.45
2023-04-20T00:57:00.468Z,51.26
2023-04-20T00:58:02.365Z,51.49
2023-04-20T00:59:04.067Z,51.19
2023-04-20T01:00:08.623Z,51.22
2023-04-20T01:01:11.209Z,51.15
2023-04-20T01:02:13.502Z,51.26
2023-04-20T01:03:17.647Z,51.44
2023-04-20T01:04:23.805Z,51.27
2023-04-20T01:05:26.960Z,51.26
2023-04-20T01:06:32.649Z,51.62
2023-04-20T01:07:36.835Z,51.45
2023-04-20T01:08:49.312Z,51.12
2023-04-20T01:09:50.958Z,51.01
2023-04-20T01:10:52.453Z,51.46
2023-04-20T01:11:54.028Z,51.42
2023-04-20T01:12:55.638Z,51.04
2023-04-20T01:13:57.210Z,51.45
2023-04-20T01:14:59.144Z,51.08
2023-04-20T01:16:01.295Z,51.35
2023-04-20T01:17:06.083Z,51.21
2023-04-20T01:18:09.891Z,51.29
2023-04-20T01:19:13.629Z,51.55
2023-04-20T01:20:15.501Z,51.28
2023-04-20T01:21:19.581Z,51.47
2023-04-20T01:22:21.684Z,51.45
2023-04-20T01:23:23.330Z,51.13
2023-04-20T01:24:24.929Z,51.16
2023-04-20T01:25:26.512Z,51.42
2023-04-20T01:26:30.511Z,51.20
2023-04-20T01:27:32.075Z,51.46
2023-04-20T01:28:38.750Z,51.46
2023-04-20T01:29:40.592Z,51.34
2023-04-20T01:30:44.607Z,50.94
2023-04-20T01:31:46.597Z,51.12
2023-04-20T01:32:48.650Z,51.01
2023-04-20T01:33:52.678Z,51.22
2023-04-20T01:34:56.179Z,50.86
2023-04-20T01:35:57.947Z,51.22
2023-04-20T01:37:08.057Z,51.01
2023-04-20T01:38:09.753Z,51.78
2023-04-20T01:39:12.155Z,51.82
2023-04-20T01:40:14.351Z,51.59
2023-04-20T01:41:16.184Z,51.24
2023-04-20T01:42:22.648Z,50.93
2023-04-20T01:43:25.216Z,51.30
2023-04-20T01:44:29.100Z,51.18
2023-04-20T01:45:30.747Z,51.62
2023-04-20T01:46:32.493Z,51.14
2023-04-20T01:47:34.117Z,51.37
2023-04-20T01:48:35.836Z,51.24
2023-04-20T01:49:40.832Z,51.25
2023-04-20T01:50:42.519Z,51.12
2023-04-20T01:51:46.482Z,50.99
2023-04-20T01:52:50.686Z,50.68
2023-04-20T01:53:55.897Z,51.08
2023-04-20T01:54:57.742Z,51.21
2023-04-20T01:55:59.846Z,51.48
2023-04-20T01:57:03.486Z,51.60
2023-04-20T01:58:07.162Z,51.88
2023-04-20T01:59:09.250Z,51.51
2023-04-20T02:00:11.531Z,51.80
2023-04-20T02:01:15.964Z,51.37
2023-04-20T02:02:17.987Z,51.06
2023-04-20T02:03:19.806Z,51.41
2023-04-20T02:04:23.042Z,51.25
2023-04-20T02:05:25.067Z,51.11
2023-04-20T02:06:26.750Z,51.40
2023-04-20T02:07:28.882Z,51.36
2023-04-20T02:08:30.411Z,51.33
2023-04-20T02:09:32.047Z,51.60
2023-04-20T02:10:33.560Z,51.45
2023-04-20T02:11:35.783Z,51.38
2023-04-20T02:12:40.811Z,51.37
2023-04-20T02:13:42.418Z,51.70
2023-04-20T02:14:44.011Z,51.45
2023-04-20T02:15:45.865Z,51.29
2023-04-20T02:16:47.798Z,51.16
2023-04-20T02:17:52.478Z,51.10
2023-04-20T02:18:54.763Z,51.13
2023-04-20T02:19:56.454Z,51.29
2023-04-20T02:21:01.203Z,51.30
2023-04-20T02:22:02.863Z,51.13
2023-04-20T02:23:04.493Z,51.22
2023-04-20T02:24:06.468Z,51.34
2023-04-20T02:25:08.878Z,51.24
2023-04-20T02:26:11.995Z,51.04
2023-04-20T02:27:15.202Z,51.04
2023-04-20T02:28:16.813Z,50.92
2023-04-20T02:29:18.742Z,51.09
2023-04-20T02:30:20.632Z,51.20
2023-04-20T02:31:22.240Z,51.62
2023-04-20T02:32:24.004Z,51.24
2023-04-20T02:33:25.720Z,51.28
2023-04-20T02:34:28.338Z,51.15
2023-04-20T02:35:31.828Z,50.82
2023-04-20T02:36:33.450Z,51.09
2023-04-20T02:37:35.956Z,51.09
2023-04-20T02:38:39.333Z,51.18
2023-04-20T02:39:42.389Z,51.04
2023-04-20T02:40:43.960Z,51.17
2023-04-20T02:41:45.975Z,51.11
2023-04-20T02:42:47.517Z,51.31
2023-04-20T02:43:49.157Z,50.87
2023-04-20T02:44:52.585Z,50.93
2023-04-20T02:45:54.405Z,50.77
2023-04-20T02:46:57.488Z,50.97
2023-04-20T02:47:59.993Z,50.78
2023-04-20T02:49:05.121Z,50.91
2023-04-20T02:50:11.643Z,50.71
2023-04-20T02:51:31.503Z,50.92
2023-04-20T02:52:33.145Z,50.88
2023-04-20T02:53:36.567Z,50.77
2023-04-20T02:54:47.677Z,50.78
2023-04-20T02:55:49.340Z,50.61
2023-04-20T02:56:59.200Z,50.79
2023-04-20T02:58:01.274Z,50.81
2023-04-20T02:59:21.272Z,50.67
2023-04-20T03:00:32.745Z,50.75
2023-04-20T03:01:39.852Z,50.77
2023-04-20T03:02:47.516Z,50.95
2023-04-20T03:03:49.775Z,50.97
2023-04-20T03:04:54.162Z,50.72
2023-04-20T03:05:56.833Z,50.84
2023-04-20T03:07:01.402Z,50.89
2023-04-20T03:08:07.033Z,50.79
2023-04-20T03:09:09.475Z,50.74
2023-04-20T03:10:31.290Z,51.04
2023-04-20T03:11:48.854Z,50.62
2023-04-20T03:13:03.920Z,50.78
2023-04-20T03:14:27.699Z,50.55
2023-04-20T03:15:29.409Z,50.57
2023-04-20T03:17:00.048Z,50.54
2023-04-20T03:18:01.872Z,50.38
2023-04-20T03:19:04.572Z,50.36
2023-04-20T03:20:07.432Z,50.46
2023-04-20T03:21:09.239Z,50.45
2023-04-20T03:22:13.714Z,50.31
2023-04-20T03:23:15.349Z,50.51
2023-04-20T03:24:17.016Z,50.22
2023-04-20T03:25:19.577Z,50.06
2023-04-20T03:26:47.419Z,50.37
2023-04-20T03:27:55.270Z,50.14
2023-04-20T03:28:59.698Z,49.94
2023-04-20T03:30:02.195Z,49.72
2023-04-20T03:31:06.519Z,49.93
2023-04-20T03:32:08.288Z,49.83
2023-04-20T03:33:10.016Z,50.20
2023-04-20T03:34:13.885Z,50.39
2023-04-20T03:35:17.554Z,49.97
2023-04-20T03:36:19.174Z,49.94
2023-04-20T03:37:20.831Z,50.19
2023-04-20T03:38:22.810Z,50.16
2023-04-20T03:39:24.482Z,50.15
2023-04-20T03:40:28.251Z,50.48
2023-04-20T03:41:31.311Z,50.46
2023-04-20T03:42:32.977Z,49.98
2023-04-20T03:43:34.810Z,50.34
2023-04-20T03:44:36.436Z,50.22
2023-04-20T03:45:39.875Z,49.96
2023-04-20T03:46:41.390Z,50.10
2023-04-20T03:47:43.214Z,50.21
2023-04-20T03:48:44.900Z,50.03
2023-04-20T03:49:47.313Z,49.83
2023-04-20T03:50:48.875Z,50.30
2023-04-20T03:51:50.742Z,50.09
2023-04-20T03:52:54.601Z,50.12
2023-04-20T03:53:56.461Z,49.89
2023-04-20T03:55:01.127Z,49.93
2023-04-20T03:56:03.311Z,50.30
2023-04-20T03:57:05.221Z,49.92
2023-04-20T03:58:07.076Z,50.03
2023-04-20T03:59:27.873Z,50.06
2023-04-20T04:00:29.494Z,49.98
2023-04-20T04:01:40.893Z,49.93
2023-04-20T04:02:44.907Z,50.06
2023-04-20T04:03:47.441Z,49.71
2023-04-20T04:04:49.345Z,50.13
2023-04-20T04:05:51.010Z,50.30
2023-04-20T04:06:52.609Z,50.07
2023-04-20T04:07:54.474Z,50.22
2023-04-20T04:08:56.183Z,49.86
2023-04-20T04:09:58.505Z,50.38
2023-04-20T04:11:00.630Z,50.28
2023-04-20T04:12:04.531Z,50.10
2023-04-20T04:13:09.705Z,50.21
2023-04-20T04:14:11.756Z,50.03
2023-04-20T04:15:13.481Z,50.55
2023-04-20T04:16:23.391Z,49.91
2023-04-20T04:17:27.830Z,49.99
2023-04-20T04:18:32.765Z,50.12
2023-04-20T04:19:39.014Z,50.40
2023-04-20T04:20:40.702Z,50.20
2023-04-20T04:21:43.640Z,50.11
2023-04-20T04:22:46.007Z,50.19
2023-04-20T04:24:19.922Z,50.12
2023-04-20T04:25:34.119Z,49.94
2023-04-20T04:26:36.290Z,49.81
2023-04-20T04:27:39.886Z,50.04
2023-04-20T04:28:41.911Z,49.50
2023-04-20T04:29:50.053Z,49.44
2023-04-20T04:31:25.977Z,49.76
2023-04-20T04:32:31.608Z,49.71
2023-04-20T04:33:34.654Z,49.80
2023-04-20T04:34:39.495Z,50.11
2023-04-20T04:35:41.648Z,50.30
2023-04-20T04:36:44.447Z,49.78
2023-04-20T04:37:51.222Z,50.12
2023-04-20T04:38:53.287Z,50.29
2023-04-20T04:39:55.463Z,50.13
2023-04-20T04:41:07.834Z,49.92
2023-04-20T04:42:09.667Z,50.20
2023-04-20T04:43:16.134Z,49.92
2023-04-20T04:44:26.027Z,49.95
2023-04-20T04:45:28.505Z,49.88
2023-04-20T04:46:30.336Z,49.90
2023-04-20T04:47:35.888Z,49.88
2023-04-20T04:48:38.259Z,49.95
2023-04-20T04:49:41.028Z,49.90
2023-04-20T04:50:42.738Z,49.92
2023-04-20T04:51:44.289Z,50.57
2023-04-20T04:52:46.098Z,50.31
2023-04-20T04:53:49.554Z,50.49
2023-04-20T04:54:51.228Z,50.16
2023-04-20T04:55:55.247Z,50.20
2023-04-20T04:56:58.279Z,50.44
2023-04-20T04:58:00.026Z,50.02
2023-04-20T04:59:01.681Z,49.97
2023-04-20T05:00:09.641Z,50.05
2023-04-20T05:01:14.064Z,49.87
2023-04-20T05:02:20.963Z,50.42
2023-04-20T05:03:22.903Z,50.32
2023-04-20T05:04:24.842Z,50.33
2023-04-20T05:05:28.838Z,50.28
2023-04-20T05:06:34.586Z,50.31
2023-04-20T05:07:36.262Z,50.66
2023-04-20T05:08:37.871Z,50.73
2023-04-20T05:09:39.952Z,50.83
2023-04-20T05:10:41.577Z,51.02
2023-04-20T05:11:43.207Z,50.86
2023-04-20T05:12:44.713Z,51.35
2023-04-20T05:13:46.433Z,50.91
2023-04-20T05:14:50.631Z,51.41
2023-04-20T05:15:52.271Z,51.00
2023-04-20T05:16:53.968Z,51.59
2023-04-20T05:17:55.641Z,51.12
2023-04-20T05:18:57.241Z,51.52
2023-04-20T05:19:58.961Z,51.45
2023-04-20T05:21:02.845Z,51.58
2023-04-20T05:22:04.689Z,51.21
2023-04-20T05:23:06.360Z,51.42
2023-04-20T05:24:08.012Z,51.39
2023-04-20T05:25:13.873Z,51.37
2023-04-20T05:26:17.998Z,51.10
2023-04-20T05:27:24.447Z,51.15
2023-04-20T05:28:26.785Z,51.57
2023-04-20T05:29:28.481Z,51.33
2023-04-20T05:30:30.264Z,51.50
2023-04-20T05:31:33.384Z,51.43
2023-04-20T05:32:35.267Z,51.25
2023-04-20T05:33:39.945Z,51.65
2023-04-20T05:34:41.558Z,51.51
2023-04-20T05:35:45.297Z,51.84
2023-04-20T05:36:47.586Z,51.41
2023-04-20T05:37:51.730Z,51.45
2023-04-20T05:38:53.324Z,51.51
2023-04-20T05:39:54.926Z,51.26
2023-04-20T05:41:01.600Z,51.28
2023-04-20T05:42:03.312Z,51.34
2023-04-20T05:43:04.852Z,51.41
2023-04-20T05:44:06.483Z,51.40
2023-04-20T05:45:09.009Z,51.15
2023-04-20T05:46:11.020Z,51.16
2023-04-20T05:47:17.318Z,51.46
2023-04-20T05:48:19.078Z,51.54
2023-04-20T05:49:23.133Z,51.62
2023-04-20T05:50:25.679Z,51.60
2023-04-20T05:51:30.428Z,51.56
2023-04-20T05:52:31.968Z,51.81
2023-04-20T05:53:33.613Z,51.40
2023-04-20T05:54:35.182Z,51.62
2023-04-20T05:55:36.836Z,51.18
2023-04-20T05:56:38.522Z,51.06
2023-04-20T05:57:42.842Z,51.26
2023-04-20T05:58:46.863Z,51.32
2023-04-20T05:59:48.442Z,51.55
2023-04-20T06:00:50.113Z,51.69
2023-04-20T06:01:53.861Z,51.55
2023-04-20T06:02:55.556Z,51.90
2023-04-20T06:03:57.726Z,51.41
2023-04-20T06:05:02.549Z,51.53
2023-04-20T06:06:04.542Z,51.62
2023-04-20T06:07:06.275Z,51.55
2023-04-20T06:08:07.935Z,51.47
2023-04-20T06:09:09.882Z,51.53
2023-04-20T06:10:14.131Z,51.59
2023-04-20T06:11:18.238Z,51.42
2023-04-20T06:12:19.924Z,51.25
2023-04-20T06:13:21.758Z,51.48
2023-04-20T06:14:23.311Z,51.50
2023-04-20T06:15:29.227Z,51.52
2023-04-20T06:16:30.856Z,51.45
2023-04-20T06:17:35.432Z,51.84
2023-04-20T06:18:37.604Z,51.58
2023-04-20T06:19:39.313Z,51.91
2023-04-20T06:20:43.900Z,51.80
2023-04-20T06:21:45.550Z,51.75
2023-04-20T06:22:50.081Z,51.66
2023-04-20T06:23:51.693Z,51.74
2023-04-20T06:24:53.307Z,51.59
2023-04-20T06:25:54.828Z,51.59
2023-04-20T06:26:57.333Z,51.36
2023-04-20T06:27:59.037Z,51.38
2023-04-20T06:29:00.901Z,52.07
2023-04-20T06:30:03.056Z,51.55
2023-04-20T06:31:05.259Z,51.34
2023-04-20T06:32:06.915Z,51.42
2023-04-20T06:33:10.238Z,51.39
2023-04-20T06:34:14.854Z,51.52
2023-04-20T06:35:16.481Z,51.20
2023-04-20T06:36:20.336Z,51.63
2023-04-20T06:37:21.981Z,51.31
2023-04-20T06:38:24.482Z,51.70
2023-04-20T06:39:26.170Z,51.33
2023-04-20T06:40:28.160Z,51.50
2023-04-20T06:41:29.789Z,51.49
2023-04-20T06:42:42.712Z,51.25
2023-04-20T06:43:45.711Z,50.93
2023-04-20T06:44:47.326Z,51.46
2023-04-20T06:45:48.857Z,51.27
2023-04-20T06:46:50.800Z,51.12
2023-04-20T06:47:52.575Z,51.51
2023-04-20T06:48:54.159Z,51.43
2023-04-20T06:49:56.121Z,51.00
2023-04-20T06:50:57.723Z,51.15
2023-04-20T06:51:59.243Z,51.08
2023-04-20T06:53:03.038Z,50.84
2023-04-20T06:54:04.681Z,51.17
2023-04-20T06:55:07.156Z,50.81
2023-04-20T06:56:12.175Z,51.13
2023-04-20T06:57:13.848Z,50.85
2023-04-20T06:58:15.648Z,51.01
2023-04-20T06:59:18.908Z,50.99
2023-04-20T07:00:23.343Z,50.54
2023-04-20T07:01:24.975Z,50.05
2023-04-20T07:02:27.462Z,50.48
2023-04-20T07:03:30.274Z,50.56
2023-04-20T07:04:32.020Z,50.33
2023-04-20T07:05:35.779Z,50.36
2023-04-20T07:06:37.400Z,50.31
2023-04-20T07:07:39.923Z,49.71
2023-04-20T07:08:41.592Z,49.72
2023-04-20T07:09:43.195Z,49.82
2023-04-20T07:10:44.816Z,49.86
2023-04-20T07:11:46.482Z,49.49
2023-04-20T07:12:52.788Z,49.45
2023-04-20T07:13:54.470Z,49.27
2023-04-20T07:14:56.067Z,49.35
2023-04-20T07:15:58.244Z,49.40
2023-04-20T07:16:59.869Z,48.95
2023-04-20T07:18:01.540Z,48.84
2023-04-20T07:19:03.070Z,49.16
2023-04-20T07:20:08.796Z,48.90
2023-04-20T07:21:10.589Z,48.46
2023-04-20T07:22:12.139Z,48.86
2023-04-20T07:23:13.786Z,48.75
2023-04-20T07:24:15.401Z,48.71
2023-04-20T07:25:17.834Z,48.74
2023-04-20T07:26:19.463Z,48.75
2023-04-20T07:27:21.103Z,48.75
2023-04-20T07:28:22.635Z,48.89
2023-04-20T07:29:24.330Z,48.48
2023-04-20T07:30:26.188Z,48.57
2023-04-20T07:31:27.964Z,48.64
2023-04-20T07:32:29.513Z,49.11
2023-04-20T07:33:32.048Z,48.82
2023-04-20T07:34:33.803Z,48.79
2023-04-20T07:35:35.455Z,48.82
2023-04-20T07:36:39.024Z,48.18
2023-04-20T07:37:40.912Z,48.46
2023-04-20T07:38:42.674Z,48.39
2023-04-20T07:39:44.138Z,48.48
2023-04-20T07:40:48.297Z,48.13
2023-04-20T07:41:49.903Z,48.00
2023-04-20T07:42:51.549Z,48.11
2023-04-20T07:43:53.125Z,47.65
2023-04-20T07:44:54.760Z,47.67
2023-04-20T07:45:56.421Z,47.70
2023-04-20T07:46:58.314Z,48.05
2023-04-20T07:48:01.557Z,47.68
2023-04-20T07:49:05.841Z,47.66
2023-04-20T07:50:07.939Z,48.13
2023-04-20T07:51:12.074Z,48.07
2023-04-20T07:52:17.001Z,47.99
2023-04-20T07:53:19.122Z,48.56
2023-04-20T07:54:20.770Z,48.53
2023-04-20T07:55:22.284Z,48.35
2023-04-20T07:56:23.901Z,48.67
2023-04-20T07:57:28.698Z,48.46
2023-04-20T07:58:30.240Z,48.26
2023-04-20T07:59:34.240Z,48.48
2023-04-20T08:00:36.011Z,48.10
2023-04-20T08:01:37.740Z,48.34
2023-04-20T08:02:39.712Z,47.89
2023-04-20T08:03:41.794Z,47.96
2023-04-20T08:04:44.608Z,47.74
2023-04-20T08:05:46.633Z,47.96
2023-04-20T08:06:50.806Z,47.80
2023-04-20T08:07:52.448Z,47.87
2023-04-20T08:08:54.085Z,47.88
2023-04-20T08:09:56.831Z,47.76
2023-04-20T08:10:58.763Z,48.16
2023-04-20T08:12:02.871Z,48.23
2023-04-20T08:13:04.508Z,47.95
2023-04-20T08:14:06.060Z,47.59
2023-04-20T08:15:08.434Z,47.58
2023-04-20T08:16:10.236Z,47.77
2023-04-20T08:17:11.915Z,47.53
2023-04-20T08:18:13.633Z,47.90
2023-04-20T08:20:21.726Z,48.21
2023-04-20T08:21:25.425Z,48.33
2023-04-20T08:22:30.382Z,48.04
2023-04-20T08:23:34.580Z,47.93
2023-04-20T08:24:36.235Z,47.78
2023-04-20T08:25:41.109Z,48.18
2023-04-20T08:26:43.358Z,48.01
2023-04-20T08:27:45.259Z,47.87
2023-04-20T08:28:46.814Z,48.14
2023-04-20T08:29:48.411Z,47.93
2023-04-20T08:30:50.408Z,47.61
2023-04-20T08:31:54.228Z,47.54
2023-04-20T08:32:56.218Z,47.69
2023-04-20T08:33:58.096Z,47.54
2023-04-20T08:34:59.527Z,48.21
2023-04-20T08:36:03.525Z,47.81
2023-04-20T08:37:06.090Z,47.65
2023-04-20T08:38:11.298Z,47.73
2023-04-20T08:39:19.258Z,47.40
2023-04-20T08:40:21.760Z,47.33
2023-04-20T08:41:25.158Z,47.48
2023-04-20T08:42:26.765Z,47.35
2023-04-20T08:43:29.365Z,47.77
2023-04-20T08:44:31.797Z,47.60
2023-04-20T08:45:33.396Z,47.74
2023-04-20T08:46:35.459Z,47.30
2023-04-20T08:47:37.364Z,47.62
2023-04-20T08:48:45.606Z,47.72
2023-04-20T08:49:54.143Z,47.91
2023-04-20T08:50:55.989Z,47.81
2023-04-20T08:52:00.959Z,48.00
2023-04-20T08:53:04.891Z,47.81
2023-04-20T08:54:07.398Z,47.83
2023-04-20T08:55:09.178Z,47.85
2023-04-20T08:56:13.085Z,48.39
2023-04-20T08:57:14.743Z,48.27
2023-04-20T08:58:19.087Z,48.17
2023-04-20T08:59:20.886Z,48.57
2023-04-20T09:00:24.756Z,48.04
2023-04-20T09:01:35.558Z,47.89
2023-04-20T09:02:49.377Z,47.92
2023-04-20T09:03:51.183Z,47.89
2023-04-20T09:05:04.114Z,47.85
2023-04-20T09:06:06.617Z,48.07
2023-04-20T09:07:20.944Z,47.89
2023-04-20T09:08:35.501Z,48.08
2023-04-20T09:09:37.227Z,48.17
2023-04-20T09:10:43.670Z,47.95
2023-04-20T09:11:45.510Z,48.11
2023-04-20T09:12:49.301Z,48.38
2023-04-20T09:13:59.311Z,48.50
2023-04-20T09:15:03.974Z,48.54
2023-04-20T09:16:13.620Z,48.51
2023-04-20T09:17:17.897Z,48.27
2023-04-20T09:18:23.619Z,48.52
2023-04-20T09:19:26.068Z,48.20
2023-04-20T09:20:34.910Z,48.14
2023-04-20T09:21:36.637Z,48.24
2023-04-20T09:22:38.444Z,48.62
2023-04-20T09:23:43.369Z,48.31
2023-04-20T09:24:47.545Z,48.66
2023-04-20T09:25:53.135Z,48.40
2023-04-20T09:26:54.858Z,48.25
2023-04-20T09:27:57.578Z,48.48
2023-04-20T09:29:01.467Z,48.30
2023-04-20T09:30:06.903Z,48.22
2023-04-20T09:31:23.543Z,48.12
2023-04-20T09:32:29.344Z,48.30
2023-04-20T09:33:32.397Z,48.23
2023-04-20T09:34:44.996Z,47.67
2023-04-20T09:35:48.863Z,48.03
2023-04-20T09:36:52.443Z,48.40
2023-04-20T09:37:54.475Z,48.25
2023-04-20T09:39:04.262Z,48.12
2023-04-20T09:40:07.861Z,48.25
2023-04-20T09:41:18.217Z,48.19
2023-04-20T09:42:20.644Z,48.25
2023-04-20T09:43:27.059Z,48.54
2023-04-20T09:44:28.978Z,48.42
2023-04-20T09:45:34.160Z,48.45
2023-04-20T09:46:40.502Z,48.36
2023-04-20T09:47:43.041Z,48.04
2023-04-20T09:48:46.131Z,48.33
2023-04-20T09:49:47.897Z,48.31
2023-04-20T09:50:51.075Z,48.82
2023-04-20T09:51:53.961Z,48.49
2023-04-20T09:52:58.388Z,48.48
2023-04-20T09:54:01.475Z,48.46
2023-04-20T09:55:05.537Z,48.56
2023-04-20T09:56:10.088Z,48.66
2023-04-20T09:57:13.409Z,48.97
2023-04-20T09:58:17.359Z,48.94
2023-04-20T09:59:19.617Z,48.15
2023-04-20T10:00:23.930Z,48.41
2023-04-20T10:01:26.134Z,48.20
2023-04-20T10:02:33.366Z,48.35
2023-04-20T10:03:35.303Z,48.49
2023-04-20T10:04:37.205Z,48.21
2023-04-20T10:05:39.739Z,48.48
2023-04-20T10:06:53.418Z,48.46
2023-04-20T10:08:00.501Z,48.31
2023-04-20T10:09:06.984Z,48.36
2023-04-20T10:10:16.058Z,48.23
2023-04-20T10:11:48.950Z,48.43
2023-04-20T10:12:52.141Z,48.46
2023-04-20T10:13:54.006Z,48.44
2023-04-20T10:14:57.017Z,48.55
2023-04-20T10:15:58.724Z,48.58
2023-04-20T10:17:05.930Z,48.99
2023-04-20T10:18:24.640Z,49.07
2023-04-20T10:19:43.547Z,48.81
2023-04-20T10:20:46.098Z,48.74
2023-04-20T10:21:50.185Z,49.16
2023-04-20T10:22:53.475Z,49.14
2023-04-20T10:23:56.155Z,49.63
2023-04-20T10:24:57.778Z,49.30
2023-04-20T10:26:00.934Z,49.69
2023-04-20T10:27:05.771Z,50.04
2023-04-20T10:28:10.448Z,49.92
2023-04-20T10:29:26.534Z,49.64
2023-04-20T10:30:29.328Z,50.02
2023-04-20T10:31:43.119Z,49.62
2023-04-20T10:32:44.831Z,49.66
2023-04-20T10:33:50.199Z,50.14
2023-04-20T10:35:03.327Z,50.40
2023-04-20T10:36:05.034Z,50.34
2023-04-20T10:37:10.870Z,50.33
2023-04-20T10:38:12.998Z,50.56
2023-04-20T10:39:20.734Z,50.66
2023-04-20T10:40:27.167Z,50.58
2023-04-20T10:41:28.836Z,50.98
2023-04-20T10:42:41.938Z,51.01
2023-04-20T10:43:43.879Z,50.85
2023-04-20T10:44:53.055Z,50.77
2023-04-20T10:45:54.688Z,50.69
2023-04-20T10:46:56.728Z,51.21
2023-04-20T10:47:58.420Z,50.99
2023-04-20T10:49:04.629Z,51.14
2023-04-20T10:50:06.738Z,51.09
2023-04-20T10:51:11.576Z,50.62
2023-04-20T10:52:15.542Z,51.18
2023-04-20T10:53:18.420Z,51.37
2023-04-20T10:54:20.278Z,50.84
2023-04-20T10:55:24.238Z,50.57
2023-04-20T10:56:26.973Z,50.10
2023-04-20T10:57:28.594Z,49.92
2023-04-20T10:58:30.256Z,50.42
2023-04-20T10:59:31.897Z,50.62
2023-04-20T11:00:33.518Z,50.57
2023-04-20T11:01:35.466Z,50.42
2023-04-20T11:02:47.752Z,50.42
2023-04-20T11:03:53.789Z,50.34
2023-04-20T11:05:00.958Z,50.72
2023-04-20T11:06:03.993Z,50.50
2023-04-20T11:07:07.748Z,50.74
2023-04-20T11:08:09.557Z,50.67
2023-04-20T11:09:26.426Z,51.06
2023-04-20T11:10:42.255Z,51.01
2023-04-20T11:11:44.002Z,50.88
2023-04-20T11:12:47.876Z,50.65
2023-04-20T11:13:52.003Z,50.71
2023-04-20T11:14:56.124Z,50.95
2023-04-20T11:16:00.345Z,50.92
2023-04-20T11:17:02.300Z,51.14
2023-04-20T11:18:13.384Z,51.00
2023-04-20T11:19:22.855Z,50.88
2023-04-20T11:20:24.437Z,50.68
2023-04-20T11:21:39.631Z,50.93
2023-04-20T11:22:42.301Z,50.57
2023-04-20T11:23:44.770Z,50.60
2023-04-20T11:24:46.473Z,50.84
2023-04-20T11:25:57.443Z,50.57
2023-04-20T11:26:59.859Z,50.98
2023-04-20T11:28:11.474Z,50.79
2023-04-20T11:29:13.085Z,51.20
2023-04-20T11:30:14.722Z,50.90
2023-04-20T11:31:16.903Z,51.34
2023-04-20T11:32:19.622Z,51.08
2023-04-20T11:33:29.056Z,51.72
2023-04-20T11:34:30.872Z,52.11
2023-04-20T11:35:41.805Z,52.40
2023-04-20T11:36:43.498Z,51.88
2023-04-20T11:37:51.053Z,51.97
2023-04-20T11:38:52.711Z,52.11
2023-04-20T11:40:01.805Z,51.54
2023-04-20T11:41:07.831Z,51.48
2023-04-20T11:42:14.551Z,51.70
2023-04-20T11:43:16.172Z,51.94
2023-04-20T11:44:20.813Z,51.82
2023-04-20T11:45:23.357Z,52.04
2023-04-20T11:46:25.361Z,52.00
2023-04-20T11:47:27.525Z,52.20
2023-04-20T11:48:32.667Z,52.30
2023-04-20T11:49:37.263Z,52.83
2023-04-20T11:50:41.013Z,52.77
2023-04-20T11:51:44.584Z,52.12
2023-04-20T11:52:46.150Z,53.01
2023-04-20T11:53:50.777Z,52.60
2023-04-20T11:54:52.415Z,52.61
2023-04-20T11:55:54.037Z,52.23
2023-04-20T11:56:56.433Z,51.80
2023-04-20T11:57:58.008Z,51.65
2023-04-20T11:58:59.629Z,51.74
2023-04-20T12:00:04.894Z,51.81
2023-04-20T12:01:16.935Z,51.89
2023-04-20T12:02:18.641Z,51.78
2023-04-20T12:03:20.663Z,51.96
2023-04-20T12:04:22.659Z,52.15
2023-04-20T12:05:24.639Z,51.90
2023-04-20T12:06:27.187Z,52.27
2023-04-20T12:07:28.825Z,51.81
2023-04-20T12:08:31.729Z,52.03
2023-04-20T12:09:37.323Z,51.86
2023-04-20T12:10:40.067Z,51.91
2023-04-20T12:11:41.779Z,51.84
2023-04-20T12:12:43.372Z,51.96
2023-04-20T12:13:44.940Z,52.07
2023-04-20T12:14:46.536Z,52.23
2023-04-20T12:15:48.294Z,52.28
2023-04-20T12:16:49.848Z,52.37
2023-04-20T12:17:53.879Z,52.15
2023-04-20T12:18:56.264Z,52.28
2023-04-20T12:19:57.930Z,52.70
2023-04-20T12:21:00.628Z,52.23
2023-04-20T12:22:02.463Z,51.84
2023-04-20T12:23:06.561Z,52.10
2023-04-20T12:24:08.128Z,52.29
2023-04-20T12:25:10.129Z,52.06
2023-04-20T12:26:11.720Z,52.16
2023-04-20T12:27:13.482Z,52.06
2023-04-20T12:28:15.107Z,52.37
2023-04-20T12:29:19.450Z,52.22
2023-04-20T12:30:21.484Z,52.42
2023-04-20T12:31:26.612Z,52.06
2023-04-20T12:32:28.344Z,52.10
2023-04-20T12:33:30.098Z,52.81
2023-04-20T12:34:34.104Z,52.04
2023-04-20T12:35:40.410Z,52.23
2023-04-20T12:36:44.270Z,52.13
2023-04-20T12:37:45.925Z,51.99
2023-04-20T12:38:47.572Z,52.10
2023-04-20T12:39:49.158Z,52.10
2023-04-20T12:40:50.757Z,52.53
2023-04-20T12:41:58.093Z,52.27
2023-04-20T12:43:02.222Z,52.08
2023-04-20T12:44:06.165Z,52.49
2023-04-20T12:45:09.508Z,52.46
2023-04-20T12:46:11.261Z,52.78
2023-04-20T12:47:13.710Z,52.53
2023-04-20T12:48:15.695Z,52.72
2023-04-20T12:49:19.807Z,52.50
2023-04-20T12:50:21.668Z,51.87
2023-04-20T12:51:23.290Z,51.79
2023-04-20T12:52:24.994Z,52.00
2023-04-20T12:53:28.911Z,52.09
2023-04-20T12:54:30.559Z,52.31
2023-04-20T12:55:34.324Z,52.42
2023-04-20T12:56:36.968Z,52.49
2023-04-20T12:57:38.757Z,53.01
2023-04-20T12:58:40.703Z,52.72
2023-04-20T12:59:42.934Z,53.03
2023-04-20T13:00:44.891Z,52.66
2023-04-20T13:01:46.771Z,52.74
2023-04-20T13:02:48.564Z,52.55
2023-04-20T13:03:52.071Z,52.26
2023-04-20T13:04:53.774Z,52.53
2023-04-20T13:05:55.512Z,52.63
2023-04-20T13:06:57.069Z,53.07
2023-04-20T13:07:58.704Z,52.61
2023-04-20T13:09:00.606Z,52.98
2023-04-20T13:10:02.185Z,53.00
2023-04-20T13:11:04.090Z,52.75
2023-04-20T13:12:05.932Z,52.60
2023-04-20T13:13:07.373Z,52.66
2023-04-20T13:14:11.512Z,52.81
2023-04-20T13:15:18.813Z,52.76
2023-04-20T13:16:22.478Z,52.68
2023-04-20T13:17:24.149Z,53.05
2023-04-20T13:18:25.933Z,52.84
2023-04-20T13:19:33.584Z,52.75
2023-04-20T13:20:37.625Z,52.14
2023-04-20T13:21:39.270Z,52.37
2023-04-20T13:22:50.687Z,52.55
2023-04-20T13:23:56.974Z,52.93
2023-04-20T13:24:58.796Z,52.59
2023-04-20T13:26:01.720Z,52.68
2023-04-20T13:27:03.629Z,52.71
2023-04-20T13:28:05.781Z,52.59
2023-04-20T13:29:07.329Z,52.87
2023-04-20T13:30:09.557Z,52.82
2023-04-20T13:31:13.479Z,53.25
2023-04-20T13:32:15.078Z,52.95
2023-04-20T13:33:16.712Z,52.86
2023-04-20T13:34:19.043Z,52.87
2023-04-20T13:35:24.238Z,53.03
2023-04-20T13:36:26.151Z,53.17
2023-04-20T13:37:27.897Z,53.30
2023-04-20T13:38:29.574Z,52.78
2023-04-20T13:39:31.028Z,53.30
2023-04-20T13:40:32.784Z,53.41
2023-04-20T13:41:34.223Z,53.74